sensor_id;sensor_type;location;lat;lon;timestamp;temperature;humidity
3684;DHT22;1858;48.716;9.648;2023-02-05T00:00:28;1.10;1.00
3684;DHT22;1858;48.716;9.648;2023-02-05T00:02:56;1.10;1.00
3684;DHT22;1858;48.716;9.648;2023-02-05T00:05:25;0.90;1.00
3684;DHT22;1858;48.716;9.648;2023-02-05T00:07:53;0.80;1.00
3684;DHT22;1858;48.716;9.648;2023-02-05T00:10:22;0.80;1.00
3684;DHT22;1858;48.716;9.648;2023-02-05T00:12:50;0.70;1.00
3684;DHT22;1858;48.716;9.648;2023-02-05T00:15:18;0.70;1.00
3684;DHT22;1858;48.716;9.648;2023-02-05T00:17:47;0.60;1.00
3684;DHT22;1858;48.716;9.648;2023-02-05T00:20:15;0.60;1.00
3684;DHT22;1858;48.716;9.648;2023-02-05T00:22:44;0.60;1.00
3684;DHT22;1858;48.716;9.648;2023-02-05T00:25:12;0.60;1.00
3684;DHT22;1858;48.716;9.648;2023-02-05T00:27:41;0.70;1.00
3684;DHT22;1858;48.716;9.648;2023-02-05T00:30:10;0.80;1.00
3684;DHT22;1858;48.716;9.648;2023-02-05T00:32:38;0.90;1.00
3684;DHT22;1858;48.716;9.648;2023-02-05T00:35:07;0.80;1.00
3684;DHT22;1858;48.716;9.648;2023-02-05T00:37:35;0.90;1.00
3684;DHT22;1858;48.716;9.648;2023-02-05T00:40:04;0.90;1.00
3684;DHT22;1858;48.716;9.648;2023-02-05T00:42:33;0.90;1.00
3684;DHT22;1858;48.716;9.648;2023-02-05T00:45:01;1.00;1.00
3684;DHT22;1858;48.716;9.648;2023-02-05T00:47:30;1.10;1.00
3684;DHT22;1858;48.716;9.648;2023-02-05T00:49:58;1.10;1.00
3684;DHT22;1858;48.716;9.648;2023-02-05T00:52:27;1.10;1.00
3684;DHT22;1858;48.716;9.648;2023-02-05T00:54:55;1.10;1.00
3684;DHT22;1858;48.716;9.648;2023-02-05T00:57:23;1.20;1.00
3684;DHT22;1858;48.716;9.648;2023-02-05T00:59:52;1.10;1.00
3684;DHT22;1858;48.716;9.648;2023-02-05T01:02:21;1.10;1.00
3684;DHT22;1858;48.716;9.648;2023-02-05T01:04:51;1.10;1.00
3684;DHT22;1858;48.716;9.648;2023-02-05T01:07:19;1.10;1.00
3684;DHT22;1858;48.716;9.648;2023-02-05T01:09:48;1.10;1.00
3684;DHT22;1858;48.716;9.648;2023-02-05T01:12:16;1.20;1.00
3684;DHT22;1858;48.716;9.648;2023-02-05T01:14:45;1.20;1.00
3684;DHT22;1858;48.716;9.648;2023-02-05T01:17:13;1.20;1.00
3684;DHT22;1858;48.716;9.648;2023-02-05T01:19:42;1.20;1.00
3684;DHT22;1858;48.716;9.648;2023-02-05T01:22:10;1.20;1.00
3684;DHT22;1858;48.716;9.648;2023-02-05T01:24:39;1.20;1.00
3684;DHT22;1858;48.716;9.648;2023-02-05T01:27:08;1.20;1.00
3684;DHT22;1858;48.716;9.648;2023-02-05T01:29:36;1.20;1.00
3684;DHT22;1858;48.716;9.648;2023-02-05T01:32:05;1.20;1.00
3684;DHT22;1858;48.716;9.648;2023-02-05T01:34:33;1.20;1.00
3684;DHT22;1858;48.716;9.648;2023-02-05T01:37:01;1.20;1.00
3684;DHT22;1858;48.716;9.648;2023-02-05T01:39:30;1.10;1.00
3684;DHT22;1858;48.716;9.648;2023-02-05T01:41:58;1.10;1.00
3684;DHT22;1858;48.716;9.648;2023-02-05T01:44:28;1.10;1.00
3684;DHT22;1858;48.716;9.648;2023-02-05T01:46:57;1.10;1.00
3684;DHT22;1858;48.716;9.648;2023-02-05T01:52:24;1.10;1.00
3684;DHT22;1858;48.716;9.648;2023-02-05T01:54:52;0.90;1.00
3684;DHT22;1858;48.716;9.648;2023-02-05T01:57:23;0.90;1.00
3684;DHT22;1858;48.716;9.648;2023-02-05T01:59:52;0.90;1.00
3684;DHT22;1858;48.716;9.648;2023-02-05T02:02:20;0.80;1.00
3684;DHT22;1858;48.716;9.648;2023-02-05T02:04:52;0.80;1.00
3684;DHT22;1858;48.716;9.648;2023-02-05T02:07:23;0.80;1.00
3684;DHT22;1858;48.716;9.648;2023-02-05T02:09:53;0.80;1.00
3684;DHT22;1858;48.716;9.648;2023-02-05T02:12:26;0.90;1.00
3684;DHT22;1858;48.716;9.648;2023-02-05T02:14:55;0.90;1.00
3684;DHT22;1858;48.716;9.648;2023-02-05T02:17:25;0.90;1.00
3684;DHT22;1858;48.716;9.648;2023-02-05T02:20:04;0.80;1.00
3684;DHT22;1858;48.716;9.648;2023-02-05T02:28:26;0.90;1.00
3684;DHT22;1858;48.716;9.648;2023-02-05T02:31:30;0.90;1.00
3684;DHT22;1858;48.716;9.648;2023-02-05T02:37:06;0.80;1.00
3684;DHT22;1858;48.716;9.648;2023-02-05T02:43:02;0.70;1.00
3684;DHT22;1858;48.716;9.648;2023-02-05T02:45:29;0.70;1.00
3684;DHT22;1858;48.716;9.648;2023-02-05T02:47:59;0.60;1.00
3684;DHT22;1858;48.716;9.648;2023-02-05T02:50:31;0.70;1.00
3684;DHT22;1858;48.716;9.648;2023-02-05T02:55:54;0.80;1.00
3684;DHT22;1858;48.716;9.648;2023-02-05T02:58:29;0.90;1.00
3684;DHT22;1858;48.716;9.648;2023-02-05T03:03:50;1.10;1.00
3684;DHT22;1858;48.716;9.648;2023-02-05T03:09:37;1.20;1.00
3684;DHT22;1858;48.716;9.648;2023-02-05T03:12:00;1.30;1.00
3684;DHT22;1858;48.716;9.648;2023-02-05T03:17:18;1.40;1.00
3684;DHT22;1858;48.716;9.648;2023-02-05T03:19:49;1.30;1.00
3684;DHT22;1858;48.716;9.648;2023-02-05T03:22:18;1.40;1.00
3684;DHT22;1858;48.716;9.648;2023-02-05T03:24:46;1.50;1.00
3684;DHT22;1858;48.716;9.648;2023-02-05T03:27:15;1.50;1.00
3684;DHT22;1858;48.716;9.648;2023-02-05T03:29:43;1.60;1.00
3684;DHT22;1858;48.716;9.648;2023-02-05T03:40:51;1.70;99.90
3684;DHT22;1858;48.716;9.648;2023-02-05T03:52:03;1.70;99.90
3684;DHT22;1858;48.716;9.648;2023-02-05T03:57:24;1.80;99.90
3684;DHT22;1858;48.716;9.648;2023-02-05T04:00:08;1.90;99.90
3684;DHT22;1858;48.716;9.648;2023-02-05T04:02:37;1.90;99.90
3684;DHT22;1858;48.716;9.648;2023-02-05T04:05:06;1.90;99.90
3684;DHT22;1858;48.716;9.648;2023-02-05T04:07:35;1.80;99.90
3684;DHT22;1858;48.716;9.648;2023-02-05T04:10:03;1.70;99.90
3684;DHT22;1858;48.716;9.648;2023-02-05T04:12:31;1.80;99.90
3684;DHT22;1858;48.716;9.648;2023-02-05T04:15:00;1.90;99.90
3684;DHT22;1858;48.716;9.648;2023-02-05T04:17:29;1.90;99.90
3684;DHT22;1858;48.716;9.648;2023-02-05T04:19:57;1.90;99.90
3684;DHT22;1858;48.716;9.648;2023-02-05T04:22:26;1.90;99.90
3684;DHT22;1858;48.716;9.648;2023-02-05T04:24:54;2.00;99.90
3684;DHT22;1858;48.716;9.648;2023-02-05T04:27:23;2.10;99.90
3684;DHT22;1858;48.716;9.648;2023-02-05T04:29:51;2.10;99.90
3684;DHT22;1858;48.716;9.648;2023-02-05T04:32:19;2.10;99.90
3684;DHT22;1858;48.716;9.648;2023-02-05T04:34:48;2.10;99.90
3684;DHT22;1858;48.716;9.648;2023-02-05T04:37:16;2.20;99.90
3684;DHT22;1858;48.716;9.648;2023-02-05T04:42:33;2.20;99.90
3684;DHT22;1858;48.716;9.648;2023-02-05T04:45:02;2.20;99.90
3684;DHT22;1858;48.716;9.648;2023-02-05T04:47:32;2.30;99.90
3684;DHT22;1858;48.716;9.648;2023-02-05T04:50:01;2.30;99.90
3684;DHT22;1858;48.716;9.648;2023-02-05T04:52:29;2.20;99.90
3684;DHT22;1858;48.716;9.648;2023-02-05T04:54:57;2.20;99.90
3684;DHT22;1858;48.716;9.648;2023-02-05T04:57:26;2.30;99.90
3684;DHT22;1858;48.716;9.648;2023-02-05T04:59:56;2.30;99.90
3684;DHT22;1858;48.716;9.648;2023-02-05T05:02:24;2.10;99.90
3684;DHT22;1858;48.716;9.648;2023-02-05T05:04:53;2.20;99.90
3684;DHT22;1858;48.716;9.648;2023-02-05T05:07:21;2.30;99.90
3684;DHT22;1858;48.716;9.648;2023-02-05T05:09:50;2.30;99.90
3684;DHT22;1858;48.716;9.648;2023-02-05T05:12:18;2.20;99.90
3684;DHT22;1858;48.716;9.648;2023-02-05T05:14:47;2.20;99.90
3684;DHT22;1858;48.716;9.648;2023-02-05T05:17:15;2.20;99.90
3684;DHT22;1858;48.716;9.648;2023-02-05T05:19:44;2.30;99.90
3684;DHT22;1858;48.716;9.648;2023-02-05T05:22:12;2.40;99.90
3684;DHT22;1858;48.716;9.648;2023-02-05T05:24:40;2.40;99.90
3684;DHT22;1858;48.716;9.648;2023-02-05T05:27:09;2.40;99.90
3684;DHT22;1858;48.716;9.648;2023-02-05T05:29:37;2.40;99.90
3684;DHT22;1858;48.716;9.648;2023-02-05T05:32:06;2.40;99.90
3684;DHT22;1858;48.716;9.648;2023-02-05T05:34:34;2.50;99.90
3684;DHT22;1858;48.716;9.648;2023-02-05T05:37:02;2.50;99.90
3684;DHT22;1858;48.716;9.648;2023-02-05T05:39:31;2.50;99.90
3684;DHT22;1858;48.716;9.648;2023-02-05T05:42:17;2.50;99.90
3684;DHT22;1858;48.716;9.648;2023-02-05T05:45:04;2.40;99.90
3684;DHT22;1858;48.716;9.648;2023-02-05T05:47:32;2.50;99.90
3684;DHT22;1858;48.716;9.648;2023-02-05T05:50:00;2.50;99.90
3684;DHT22;1858;48.716;9.648;2023-02-05T05:52:29;2.50;99.90
3684;DHT22;1858;48.716;9.648;2023-02-05T05:54:57;2.50;99.90
3684;DHT22;1858;48.716;9.648;2023-02-05T05:57:27;2.50;99.90
3684;DHT22;1858;48.716;9.648;2023-02-05T05:59:55;2.40;99.90
3684;DHT22;1858;48.716;9.648;2023-02-05T06:02:24;2.50;99.90
3684;DHT22;1858;48.716;9.648;2023-02-05T06:04:52;2.50;99.90
3684;DHT22;1858;48.716;9.648;2023-02-05T06:07:20;2.50;99.90
3684;DHT22;1858;48.716;9.648;2023-02-05T06:09:49;2.50;99.90
3684;DHT22;1858;48.716;9.648;2023-02-05T06:12:18;2.30;99.90
3684;DHT22;1858;48.716;9.648;2023-02-05T06:14:46;2.10;99.90
3684;DHT22;1858;48.716;9.648;2023-02-05T06:17:34;2.00;99.90
3684;DHT22;1858;48.716;9.648;2023-02-05T06:20:03;2.00;99.90
3684;DHT22;1858;48.716;9.648;2023-02-05T06:22:32;1.90;99.90
3684;DHT22;1858;48.716;9.648;2023-02-05T06:25:00;1.80;99.90
3684;DHT22;1858;48.716;9.648;2023-02-05T06:27:29;1.80;99.90
3684;DHT22;1858;48.716;9.648;2023-02-05T06:29:58;1.90;99.90
3684;DHT22;1858;48.716;9.648;2023-02-05T06:32:26;2.00;99.90
3684;DHT22;1858;48.716;9.648;2023-02-05T06:34:54;2.00;99.90
3684;DHT22;1858;48.716;9.648;2023-02-05T06:37:23;2.10;99.90
3684;DHT22;1858;48.716;9.648;2023-02-05T06:40:15;2.20;99.90
3684;DHT22;1858;48.716;9.648;2023-02-05T06:42:45;2.30;99.90
3684;DHT22;1858;48.716;9.648;2023-02-05T06:45:14;2.30;99.90
3684;DHT22;1858;48.716;9.648;2023-02-05T06:47:42;2.40;99.90
3684;DHT22;1858;48.716;9.648;2023-02-05T06:50:11;2.40;99.90
3684;DHT22;1858;48.716;9.648;2023-02-05T06:52:39;2.50;99.90
3684;DHT22;1858;48.716;9.648;2023-02-05T06:55:08;2.50;99.90
3684;DHT22;1858;48.716;9.648;2023-02-05T06:57:36;2.60;99.90
3684;DHT22;1858;48.716;9.648;2023-02-05T07:00:06;2.60;99.90
3684;DHT22;1858;48.716;9.648;2023-02-05T07:02:34;2.70;99.90
3684;DHT22;1858;48.716;9.648;2023-02-05T07:05:03;2.80;99.90
3684;DHT22;1858;48.716;9.648;2023-02-05T07:07:31;2.80;99.90
3684;DHT22;1858;48.716;9.648;2023-02-05T07:10:00;2.80;99.90
3684;DHT22;1858;48.716;9.648;2023-02-05T07:12:29;2.90;99.90
3684;DHT22;1858;48.716;9.648;2023-02-05T07:14:58;3.00;99.90
3684;DHT22;1858;48.716;9.648;2023-02-05T07:17:26;3.00;99.90
3684;DHT22;1858;48.716;9.648;2023-02-05T07:19:55;3.10;99.90
3684;DHT22;1858;48.716;9.648;2023-02-05T07:22:25;3.00;99.90
3684;DHT22;1858;48.716;9.648;2023-02-05T07:24:53;3.10;99.90
3684;DHT22;1858;48.716;9.648;2023-02-05T07:27:22;3.10;99.90
3684;DHT22;1858;48.716;9.648;2023-02-05T07:29:50;3.10;99.90
3684;DHT22;1858;48.716;9.648;2023-02-05T07:32:18;3.20;99.90
3684;DHT22;1858;48.716;9.648;2023-02-05T07:34:47;3.30;99.90
3684;DHT22;1858;48.716;9.648;2023-02-05T07:37:15;3.30;99.90
3684;DHT22;1858;48.716;9.648;2023-02-05T07:39:43;3.40;99.90
3684;DHT22;1858;48.716;9.648;2023-02-05T07:42:12;3.40;99.90
3684;DHT22;1858;48.716;9.648;2023-02-05T07:44:40;3.50;99.90
3684;DHT22;1858;48.716;9.648;2023-02-05T07:47:09;3.50;99.90
3684;DHT22;1858;48.716;9.648;2023-02-05T07:49:37;3.70;99.90
3684;DHT22;1858;48.716;9.648;2023-02-05T07:52:06;3.70;99.90
3684;DHT22;1858;48.716;9.648;2023-02-05T07:54:34;3.70;99.90
3684;DHT22;1858;48.716;9.648;2023-02-05T07:57:03;3.70;99.90
3684;DHT22;1858;48.716;9.648;2023-02-05T07:59:31;3.80;99.90
3684;DHT22;1858;48.716;9.648;2023-02-05T08:02:00;3.80;99.90
3684;DHT22;1858;48.716;9.648;2023-02-05T08:04:28;3.90;99.90
3684;DHT22;1858;48.716;9.648;2023-02-05T08:06:57;3.90;99.90
3684;DHT22;1858;48.716;9.648;2023-02-05T08:09:25;4.00;99.90
3684;DHT22;1858;48.716;9.648;2023-02-05T08:11:53;4.10;99.90
3684;DHT22;1858;48.716;9.648;2023-02-05T08:14:22;4.20;99.90
3684;DHT22;1858;48.716;9.648;2023-02-05T08:16:51;4.10;99.90
3684;DHT22;1858;48.716;9.648;2023-02-05T08:19:19;4.20;99.90
3684;DHT22;1858;48.716;9.648;2023-02-05T08:21:47;4.30;99.90
3684;DHT22;1858;48.716;9.648;2023-02-05T08:24:16;4.30;83.90
3684;DHT22;1858;48.716;9.648;2023-02-05T08:26:44;4.30;70.10
3684;DHT22;1858;48.716;9.648;2023-02-05T08:29:13;4.40;63.30
3684;DHT22;1858;48.716;9.648;2023-02-05T08:31:41;4.40;61.00
3684;DHT22;1858;48.716;9.648;2023-02-05T08:34:10;4.40;63.80
3684;DHT22;1858;48.716;9.648;2023-02-05T08:36:38;4.50;68.90
3684;DHT22;1858;48.716;9.648;2023-02-05T08:39:07;4.40;76.20
3684;DHT22;1858;48.716;9.648;2023-02-05T08:41:36;4.50;93.90
3684;DHT22;1858;48.716;9.648;2023-02-05T08:44:04;4.60;71.00
3684;DHT22;1858;48.716;9.648;2023-02-05T08:46:33;4.40;78.40
3684;DHT22;1858;48.716;9.648;2023-02-05T08:49:01;4.30;89.60
3684;DHT22;1858;48.716;9.648;2023-02-05T08:51:29;4.20;99.90
3684;DHT22;1858;48.716;9.648;2023-02-05T08:53:59;4.20;99.90
3684;DHT22;1858;48.716;9.648;2023-02-05T08:56:28;4.30;99.90
3684;DHT22;1858;48.716;9.648;2023-02-05T08:58:56;4.40;99.90
3684;DHT22;1858;48.716;9.648;2023-02-05T09:01:25;4.50;99.90
3684;DHT22;1858;48.716;9.648;2023-02-05T09:03:53;4.50;94.00
3684;DHT22;1858;48.716;9.648;2023-02-05T09:06:22;4.70;93.80
3684;DHT22;1858;48.716;9.648;2023-02-05T09:08:51;4.80;72.20
3684;DHT22;1858;48.716;9.648;2023-02-05T09:11:20;4.90;75.80
3684;DHT22;1858;48.716;9.648;2023-02-05T09:13:49;4.90;75.00
3684;DHT22;1858;48.716;9.648;2023-02-05T09:16:17;4.90;70.90
3684;DHT22;1858;48.716;9.648;2023-02-05T09:18:47;5.10;61.90
3684;DHT22;1858;48.716;9.648;2023-02-05T09:21:15;5.20;45.40
3684;DHT22;1858;48.716;9.648;2023-02-05T09:23:43;5.10;35.60
3684;DHT22;1858;48.716;9.648;2023-02-05T09:26:12;5.10;41.60
3684;DHT22;1858;48.716;9.648;2023-02-05T09:28:40;5.10;35.20
3684;DHT22;1858;48.716;9.648;2023-02-05T09:31:13;5.20;26.90
3684;DHT22;1858;48.716;9.648;2023-02-05T09:33:42;5.20;31.90
3684;DHT22;1858;48.716;9.648;2023-02-05T09:36:16;5.30;38.30
3684;DHT22;1858;48.716;9.648;2023-02-05T09:38:45;5.30;21.20
3684;DHT22;1858;48.716;9.648;2023-02-05T09:41:25;5.40;18.60
3684;DHT22;1858;48.716;9.648;2023-02-05T09:52:43;5.30;72.50
3684;DHT22;1858;48.716;9.648;2023-02-05T09:55:18;5.30;80.60
3684;DHT22;1858;48.716;9.648;2023-02-05T09:57:45;5.30;64.50
3684;DHT22;1858;48.716;9.648;2023-02-05T10:00:23;5.30;74.20
3684;DHT22;1858;48.716;9.648;2023-02-05T10:06:15;5.40;71.50
3684;DHT22;1858;48.716;9.648;2023-02-05T10:11:42;5.40;73.00
3684;DHT22;1858;48.716;9.648;2023-02-05T10:17:22;5.50;79.70
3684;DHT22;1858;48.716;9.648;2023-02-05T10:35:36;5.60;81.90
3684;DHT22;1858;48.716;9.648;2023-02-05T10:40:36;5.80;89.10
3684;DHT22;1858;48.716;9.648;2023-02-05T10:43:23;5.80;91.60
3684;DHT22;1858;48.716;9.648;2023-02-05T10:45:54;5.80;98.30
3684;DHT22;1858;48.716;9.648;2023-02-05T10:51:37;5.80;99.90
3684;DHT22;1858;48.716;9.648;2023-02-05T11:00:02;5.60;99.90
3684;DHT22;1858;48.716;9.648;2023-02-05T11:02:39;5.60;99.90
3684;DHT22;1858;48.716;9.648;2023-02-05T11:11:24;5.50;99.90
3684;DHT22;1858;48.716;9.648;2023-02-05T11:14:03;5.50;99.90
3684;DHT22;1858;48.716;9.648;2023-02-05T11:16:42;5.60;99.90
3684;DHT22;1858;48.716;9.648;2023-02-05T11:19:25;5.70;99.90
3684;DHT22;1858;48.716;9.648;2023-02-05T11:21:57;5.60;99.90
3684;DHT22;1858;48.716;9.648;2023-02-05T11:27:33;5.40;99.90
3684;DHT22;1858;48.716;9.648;2023-02-05T11:30:37;5.40;99.90
3684;DHT22;1858;48.716;9.648;2023-02-05T11:36:04;5.30;99.90
3684;DHT22;1858;48.716;9.648;2023-02-05T11:38:46;5.30;99.90
3684;DHT22;1858;48.716;9.648;2023-02-05T11:41:27;5.20;99.90
3684;DHT22;1858;48.716;9.648;2023-02-05T11:44:05;5.30;99.90
3684;DHT22;1858;48.716;9.648;2023-02-05T11:46:41;5.10;99.90
3684;DHT22;1858;48.716;9.648;2023-02-05T11:49:13;5.00;99.90
3684;DHT22;1858;48.716;9.648;2023-02-05T11:51:57;4.90;99.90
3684;DHT22;1858;48.716;9.648;2023-02-05T11:54:30;4.80;99.90
3684;DHT22;1858;48.716;9.648;2023-02-05T12:02:47;4.70;99.90
3684;DHT22;1858;48.716;9.648;2023-02-05T12:05:20;4.70;99.90
3684;DHT22;1858;48.716;9.648;2023-02-05T12:07:52;4.70;99.90
3684;DHT22;1858;48.716;9.648;2023-02-05T12:10:30;4.70;99.90
3684;DHT22;1858;48.716;9.648;2023-02-05T12:13:52;4.70;99.90
3684;DHT22;1858;48.716;9.648;2023-02-05T12:19:31;4.70;99.90
3684;DHT22;1858;48.716;9.648;2023-02-05T12:25:13;4.50;99.90
3684;DHT22;1858;48.716;9.648;2023-02-05T12:28:33;4.60;99.90
3684;DHT22;1858;48.716;9.648;2023-02-05T12:36:54;4.80;99.90
3684;DHT22;1858;48.716;9.648;2023-02-05T12:39:53;4.90;99.90
3684;DHT22;1858;48.716;9.648;2023-02-05T12:42:39;5.00;99.90
3684;DHT22;1858;48.716;9.648;2023-02-05T12:45:39;5.10;99.90
3684;DHT22;1858;48.716;9.648;2023-02-05T12:57:04;5.00;99.90
3684;DHT22;1858;48.716;9.648;2023-02-05T12:59:59;4.90;99.90
3684;DHT22;1858;48.716;9.648;2023-02-05T13:05:32;4.90;99.90
3684;DHT22;1858;48.716;9.648;2023-02-05T13:08:22;5.00;99.90
3684;DHT22;1858;48.716;9.648;2023-02-05T13:20:05;5.00;1.00
3684;DHT22;1858;48.716;9.648;2023-02-05T13:25:27;5.00;1.00
3684;DHT22;1858;48.716;9.648;2023-02-05T13:28:27;5.00;1.00
3684;DHT22;1858;48.716;9.648;2023-02-05T13:34:11;5.00;1.00
3684;DHT22;1858;48.716;9.648;2023-02-05T14:01:59;5.30;1.00
3684;DHT22;1858;48.716;9.648;2023-02-05T14:04:35;5.40;1.00
3684;DHT22;1858;48.716;9.648;2023-02-05T14:09:57;5.40;1.00
3684;DHT22;1858;48.716;9.648;2023-02-05T14:12:29;5.40;1.00
3684;DHT22;1858;48.716;9.648;2023-02-05T14:18:06;5.50;1.00
3684;DHT22;1858;48.716;9.648;2023-02-05T14:20:40;5.50;1.00
3684;DHT22;1858;48.716;9.648;2023-02-05T14:23:52;5.50;1.00
3684;DHT22;1858;48.716;9.648;2023-02-05T14:26:05;5.60;1.00
3684;DHT22;1858;48.716;9.648;2023-02-05T14:28:35;5.60;99.90
3684;DHT22;1858;48.716;9.648;2023-02-05T14:31:04;5.70;99.90
3684;DHT22;1858;48.716;9.648;2023-02-05T14:36:45;5.80;99.90
3684;DHT22;1858;48.716;9.648;2023-02-05T14:39:33;5.80;99.90
3684;DHT22;1858;48.716;9.648;2023-02-05T14:42:05;5.80;99.90
3684;DHT22;1858;48.716;9.648;2023-02-05T14:44:38;5.70;99.90
3684;DHT22;1858;48.716;9.648;2023-02-05T14:47:39;5.80;99.90
3684;DHT22;1858;48.716;9.648;2023-02-05T14:50:30;5.70;99.90
3684;DHT22;1858;48.716;9.648;2023-02-05T14:53:02;5.70;99.90
3684;DHT22;1858;48.716;9.648;2023-02-05T14:55:36;5.70;99.90
3684;DHT22;1858;48.716;9.648;2023-02-05T14:58:28;5.60;99.90
3684;DHT22;1858;48.716;9.648;2023-02-05T15:01:28;5.60;99.90
3684;DHT22;1858;48.716;9.648;2023-02-05T15:06:50;5.70;99.90
3684;DHT22;1858;48.716;9.648;2023-02-05T15:09:22;5.70;99.90
3684;DHT22;1858;48.716;9.648;2023-02-05T15:14:59;5.60;99.90
3684;DHT22;1858;48.716;9.648;2023-02-05T15:17:46;5.60;99.90
3684;DHT22;1858;48.716;9.648;2023-02-05T15:20:27;5.60;99.90
3684;DHT22;1858;48.716;9.648;2023-02-05T15:23:46;5.60;99.90
3684;DHT22;1858;48.716;9.648;2023-02-05T15:25:44;5.50;99.90
3684;DHT22;1858;48.716;9.648;2023-02-05T15:28:44;5.50;99.90
3684;DHT22;1858;48.716;9.648;2023-02-05T15:37:04;5.40;99.90
3684;DHT22;1858;48.716;9.648;2023-02-05T15:42:34;5.30;99.90
3684;DHT22;1858;48.716;9.648;2023-02-05T15:45:24;5.30;99.90
3684;DHT22;1858;48.716;9.648;2023-02-05T15:48:05;5.20;99.90
3684;DHT22;1858;48.716;9.648;2023-02-05T15:50:53;5.10;99.90
3684;DHT22;1858;48.716;9.648;2023-02-05T15:53:47;5.10;99.90
3684;DHT22;1858;48.716;9.648;2023-02-05T15:59:18;5.00;99.90
3684;DHT22;1858;48.716;9.648;2023-02-05T16:01:42;5.00;99.90
3684;DHT22;1858;48.716;9.648;2023-02-05T16:04:35;5.00;99.90
3684;DHT22;1858;48.716;9.648;2023-02-05T16:07:22;5.00;99.90
3684;DHT22;1858;48.716;9.648;2023-02-05T16:12:40;4.90;99.90
3684;DHT22;1858;48.716;9.648;2023-02-05T16:15:12;4.90;99.90
3684;DHT22;1858;48.716;9.648;2023-02-05T16:18:02;4.80;99.90
3684;DHT22;1858;48.716;9.648;2023-02-05T16:20:52;4.80;99.90
3684;DHT22;1858;48.716;9.648;2023-02-05T16:26:11;4.80;99.90
3684;DHT22;1858;48.716;9.648;2023-02-05T16:28:49;4.70;99.90
3684;DHT22;1858;48.716;9.648;2023-02-05T16:31:38;4.80;99.90
3684;DHT22;1858;48.716;9.648;2023-02-05T16:39:52;4.70;99.90
3684;DHT22;1858;48.716;9.648;2023-02-05T16:47:38;4.60;99.90
3684;DHT22;1858;48.716;9.648;2023-02-05T16:50:40;4.60;99.90
3684;DHT22;1858;48.716;9.648;2023-02-05T16:53:27;4.50;99.90
3684;DHT22;1858;48.716;9.648;2023-02-05T16:56:01;4.50;99.90
3684;DHT22;1858;48.716;9.648;2023-02-05T16:58:43;4.50;99.90
3684;DHT22;1858;48.716;9.648;2023-02-05T17:01:02;4.40;99.90
3684;DHT22;1858;48.716;9.648;2023-02-05T17:03:36;4.50;99.90
3684;DHT22;1858;48.716;9.648;2023-02-05T17:06:25;4.40;99.90
3684;DHT22;1858;48.716;9.648;2023-02-05T17:08:54;4.40;99.90
3684;DHT22;1858;48.716;9.648;2023-02-05T17:11:40;4.40;99.90
3684;DHT22;1858;48.716;9.648;2023-02-05T17:14:20;4.50;99.90
3684;DHT22;1858;48.716;9.648;2023-02-05T17:17:00;4.50;99.90
3684;DHT22;1858;48.716;9.648;2023-02-05T17:20:01;4.50;99.90
3684;DHT22;1858;48.716;9.648;2023-02-05T17:22:30;4.60;99.90
3684;DHT22;1858;48.716;9.648;2023-02-05T17:25:01;4.50;99.90
3684;DHT22;1858;48.716;9.648;2023-02-05T17:27:35;4.60;99.90
3684;DHT22;1858;48.716;9.648;2023-02-05T17:30:04;4.50;99.90
3684;DHT22;1858;48.716;9.648;2023-02-05T17:32:52;4.50;99.90
3684;DHT22;1858;48.716;9.648;2023-02-05T17:35:21;4.50;99.90
3684;DHT22;1858;48.716;9.648;2023-02-05T17:37:53;4.50;99.90
3684;DHT22;1858;48.716;9.648;2023-02-05T17:40:21;4.40;99.90
3684;DHT22;1858;48.716;9.648;2023-02-05T17:43:09;4.40;99.90
3684;DHT22;1858;48.716;9.648;2023-02-05T17:45:39;4.50;1.00
3684;DHT22;1858;48.716;9.648;2023-02-05T17:48:29;4.50;1.00
3684;DHT22;1858;48.716;9.648;2023-02-05T17:50:57;4.60;1.00
3684;DHT22;1858;48.716;9.648;2023-02-05T17:53:27;4.60;99.90
3684;DHT22;1858;48.716;9.648;2023-02-05T17:55:55;4.50;99.90
3684;DHT22;1858;48.716;9.648;2023-02-05T17:58:24;4.50;99.90
3684;DHT22;1858;48.716;9.648;2023-02-05T18:00:57;4.40;99.90
3684;DHT22;1858;48.716;9.648;2023-02-05T18:03:45;4.40;99.90
3684;DHT22;1858;48.716;9.648;2023-02-05T18:06:15;4.40;99.90
3684;DHT22;1858;48.716;9.648;2023-02-05T18:08:45;4.40;99.90
3684;DHT22;1858;48.716;9.648;2023-02-05T18:11:13;4.40;1.00
3684;DHT22;1858;48.716;9.648;2023-02-05T18:13:42;4.30;1.00
3684;DHT22;1858;48.716;9.648;2023-02-05T18:16:29;4.30;1.00
3684;DHT22;1858;48.716;9.648;2023-02-05T18:19:19;4.40;1.00
3684;DHT22;1858;48.716;9.648;2023-02-05T18:21:49;4.40;1.00
3684;DHT22;1858;48.716;9.648;2023-02-05T18:24:21;4.30;1.00
3684;DHT22;1858;48.716;9.648;2023-02-05T18:26:51;4.30;1.00
3684;DHT22;1858;48.716;9.648;2023-02-05T18:29:19;4.30;1.00
3684;DHT22;1858;48.716;9.648;2023-02-05T18:31:48;4.30;1.00
3684;DHT22;1858;48.716;9.648;2023-02-05T18:34:16;4.30;1.00
3684;DHT22;1858;48.716;9.648;2023-02-05T18:36:45;4.30;1.00
3684;DHT22;1858;48.716;9.648;2023-02-05T18:39:13;4.30;1.00
3684;DHT22;1858;48.716;9.648;2023-02-05T18:41:42;4.30;1.00
3684;DHT22;1858;48.716;9.648;2023-02-05T18:44:10;4.30;1.00
3684;DHT22;1858;48.716;9.648;2023-02-05T18:49:40;4.30;1.00
3684;DHT22;1858;48.716;9.648;2023-02-05T18:52:10;4.30;1.00
3684;DHT22;1858;48.716;9.648;2023-02-05T18:54:42;4.40;1.00
3684;DHT22;1858;48.716;9.648;2023-02-05T18:57:11;4.40;1.00
3684;DHT22;1858;48.716;9.648;2023-02-05T18:59:39;4.40;1.00
3684;DHT22;1858;48.716;9.648;2023-02-05T19:02:09;4.40;1.00
3684;DHT22;1858;48.716;9.648;2023-02-05T19:04:38;4.40;1.00
3684;DHT22;1858;48.716;9.648;2023-02-05T19:07:07;4.30;1.00
3684;DHT22;1858;48.716;9.648;2023-02-05T19:09:36;4.30;1.00
3684;DHT22;1858;48.716;9.648;2023-02-05T19:12:04;4.30;1.00
3684;DHT22;1858;48.716;9.648;2023-02-05T19:14:33;4.40;1.00
3684;DHT22;1858;48.716;9.648;2023-02-05T19:17:04;4.40;1.00
3684;DHT22;1858;48.716;9.648;2023-02-05T19:19:52;4.40;1.00
3684;DHT22;1858;48.716;9.648;2023-02-05T19:22:21;4.40;1.00
3684;DHT22;1858;48.716;9.648;2023-02-05T19:24:50;4.50;1.00
3684;DHT22;1858;48.716;9.648;2023-02-05T19:27:18;4.50;1.00
3684;DHT22;1858;48.716;9.648;2023-02-05T19:29:47;4.40;1.00
3684;DHT22;1858;48.716;9.648;2023-02-05T19:32:15;4.40;1.00
3684;DHT22;1858;48.716;9.648;2023-02-05T19:34:43;4.40;1.00
3684;DHT22;1858;48.716;9.648;2023-02-05T19:37:12;4.40;1.00
3684;DHT22;1858;48.716;9.648;2023-02-05T19:39:41;4.40;1.00
3684;DHT22;1858;48.716;9.648;2023-02-05T19:42:09;4.40;1.00
3684;DHT22;1858;48.716;9.648;2023-02-05T19:44:38;4.50;1.00
3684;DHT22;1858;48.716;9.648;2023-02-05T19:47:09;4.60;1.00
3684;DHT22;1858;48.716;9.648;2023-02-05T19:49:39;4.50;1.00
3684;DHT22;1858;48.716;9.648;2023-02-05T19:52:07;4.40;1.00
3684;DHT22;1858;48.716;9.648;2023-02-05T19:54:35;4.30;1.00
3684;DHT22;1858;48.716;9.648;2023-02-05T19:57:04;4.30;1.00
3684;DHT22;1858;48.716;9.648;2023-02-05T19:59:35;4.30;1.00
3684;DHT22;1858;48.716;9.648;2023-02-05T20:02:04;4.40;1.00
3684;DHT22;1858;48.716;9.648;2023-02-05T20:04:32;4.40;1.00
3684;DHT22;1858;48.716;9.648;2023-02-05T20:07:00;4.40;1.00
3684;DHT22;1858;48.716;9.648;2023-02-05T20:09:29;4.30;1.00
3684;DHT22;1858;48.716;9.648;2023-02-05T20:11:58;4.40;1.00
3684;DHT22;1858;48.716;9.648;2023-02-05T20:14:28;4.20;1.00
3684;DHT22;1858;48.716;9.648;2023-02-05T20:16:57;4.30;1.00
3684;DHT22;1858;48.716;9.648;2023-02-05T20:19:25;4.30;1.00
3684;DHT22;1858;48.716;9.648;2023-02-05T20:21:54;4.30;1.00
3684;DHT22;1858;48.716;9.648;2023-02-05T20:24:22;4.20;1.00
3684;DHT22;1858;48.716;9.648;2023-02-05T20:26:50;4.10;1.00
3684;DHT22;1858;48.716;9.648;2023-02-05T20:29:19;4.10;1.00
3684;DHT22;1858;48.716;9.648;2023-02-05T20:32:05;4.00;1.00
3684;DHT22;1858;48.716;9.648;2023-02-05T20:34:55;4.10;1.00
3684;DHT22;1858;48.716;9.648;2023-02-05T20:37:23;4.20;1.00
3684;DHT22;1858;48.716;9.648;2023-02-05T20:39:52;4.30;1.00
3684;DHT22;1858;48.716;9.648;2023-02-05T20:42:20;4.30;1.00